Aviation Digital Data Service (ADDS)

Output produced by METARs form (2336 UTC 23 October 2019)
found at http://www.aviationweather.gov/metar/data/
 
METAR text: KSJC 232253Z 33011G20KT 10SM FEW110 29/10 A2989 RMK AO2 SLP121 T02940100 $
Conditions at: KSJC (SAN JOSE , CA, US) observed 2253 UTC 23 October 2019
Temperature: 29.4°C (85°F)
Dewpoint: 10.0°C (50°F) [RH = 30%]
Pressure (altimeter): 29.89 inches Hg (1012.3 mb)
[Sea-level pressure: 1012.1 mb]
Winds: from the NNW (330 degrees) at 13 MPH (11 knots; 5.7 m/s)
gusting to 23 MPH (20 knots; 10.3 m/s)
Visibility: 10 or more miles (16+ km)
Ceiling: at least 12,000 feet AGL
Clouds: few clouds at 11000 feet AGL
Weather:
SOME DATA ABOVE MAY BE INACCURATE!!!
"$" is an indication the sensor requires maintenance

METAR text: KSJC 232153Z 32010KT 10SM FEW001 SCT150 29/10 A2991 RMK AO2 SLP127 FU FEW001 T02890100 $
Conditions at: KSJC (SAN JOSE , CA, US) observed 2153 UTC 23 October 2019
Temperature: 28.9°C (84°F)
Dewpoint: 10.0°C (50°F) [RH = 31%]
Pressure (altimeter): 29.91 inches Hg (1013.0 mb)
[Sea-level pressure: 1012.7 mb]
Winds: from the NW (320 degrees) at 12 MPH (10 knots; 5.1 m/s)
Visibility: 10 or more miles (16+ km)
Ceiling: at least 12,000 feet AGL
Clouds: few clouds at 100 feet AGL
scattered clouds at 15000 feet AGL
Weather:
SOME DATA ABOVE MAY BE INACCURATE!!!
"$" is an indication the sensor requires maintenance

METAR text: KSJC 232053Z 31010KT 10SM FEW080 28/10 A2994 RMK AO2 SLP137 T02830100 58026 $
Conditions at: KSJC (SAN JOSE , CA, US) observed 2053 UTC 23 October 2019
Temperature: 28.3°C (83°F)
Dewpoint: 10.0°C (50°F) [RH = 32%]
Pressure (altimeter): 29.94 inches Hg (1014.0 mb)
[Sea-level pressure: 1013.7 mb]
Winds: from the NW (310 degrees) at 12 MPH (10 knots; 5.1 m/s)
Visibility: 10 or more miles (16+ km)
Ceiling: at least 12,000 feet AGL
Clouds: few clouds at 8000 feet AGL
Weather:
SOME DATA ABOVE MAY BE INACCURATE!!!
"$" is an indication the sensor requires maintenance

METAR text: KSJC 231953Z VRB03KT 10SM FEW080 28/09 A2997 RMK AO2 SLP148 T02830094 $
Conditions at: KSJC (SAN JOSE , CA, US) observed 1953 UTC 23 October 2019
Temperature: 28.3°C (83°F)
Dewpoint: 9.4°C (49°F) [RH = 31%]
Pressure (altimeter): 29.97 inches Hg (1015.0 mb)
[Sea-level pressure: 1014.8 mb]
Winds: variable direction winds at 3 MPH (3 knots; 1.5 m/s)
Visibility: 10 or more miles (16+ km)
Ceiling: at least 12,000 feet AGL
Clouds: few clouds at 8000 feet AGL
Weather:
SOME DATA ABOVE MAY BE INACCURATE!!!
"$" is an indication the sensor requires maintenance

METAR text: KSJC 231853Z 31005KT 10SM CLR 27/09 A2999 RMK AO2 SLP156 T02670094 $
Conditions at: KSJC (SAN JOSE , CA, US) observed 1853 UTC 23 October 2019
Temperature: 26.7°C (80°F)
Dewpoint: 9.4°C (49°F) [RH = 34%]
Pressure (altimeter): 29.99 inches Hg (1015.7 mb)
[Sea-level pressure: 1015.6 mb]
Winds: from the NW (310 degrees) at 6 MPH (5 knots; 2.6 m/s)
Visibility: 10 or more miles (16+ km)
Ceiling: at least 12,000 feet AGL
Clouds: sky clear below 12,000 feet AGL
Weather:
SOME DATA ABOVE MAY BE INACCURATE!!!
"$" is an indication the sensor requires maintenance

METAR text: KSJC 231753Z 33006KT 10SM CLR 26/10 A3001 RMK AO2 SLP163 T02610100 10261 20133 58000 $
Conditions at: KSJC (SAN JOSE , CA, US) observed 1753 UTC 23 October 2019
Temperature: 26.1°C (79°F)
Dewpoint: 10.0°C (50°F) [RH = 36%]
Pressure (altimeter): 30.01 inches Hg (1016.3 mb)
[Sea-level pressure: 1016.3 mb]
Winds: from the NNW (330 degrees) at 7 MPH (6 knots; 3.1 m/s)
Visibility: 10 or more miles (16+ km)
Ceiling: at least 12,000 feet AGL
Clouds: sky clear below 12,000 feet AGL
Weather:
SOME DATA ABOVE MAY BE INACCURATE!!!
"$" is an indication the sensor requires maintenance

METAR text: KSJC 231653Z 00000KT 10SM FEW080 23/11 A3002 RMK AO2 SLP164 T02280111
Conditions at: KSJC (SAN JOSE , CA, US) observed 1653 UTC 23 October 2019
Temperature: 22.8°C (73°F)
Dewpoint: 11.1°C (52°F) [RH = 48%]
Pressure (altimeter): 30.02 inches Hg (1016.7 mb)
[Sea-level pressure: 1016.4 mb]
Winds: calm
Visibility: 10 or more miles (16+ km)
Ceiling: at least 12,000 feet AGL
Clouds: few clouds at 8000 feet AGL
Weather: no significant weather observed at this time

METAR text: KSJC 231553Z 00000KT 10SM FEW080 18/10 A3003 RMK AO2 SLP167 T01830100
Conditions at: KSJC (SAN JOSE , CA, US) observed 1553 UTC 23 October 2019
Temperature: 18.3°C (65°F)
Dewpoint: 10.0°C (50°F) [RH = 58%]
Pressure (altimeter): 30.03 inches Hg (1017.0 mb)
[Sea-level pressure: 1016.7 mb]
Winds: calm
Visibility: 10 or more miles (16+ km)
Ceiling: at least 12,000 feet AGL
Clouds: few clouds at 8000 feet AGL
Weather: no significant weather observed at this time

METAR text: KSJC 231453Z 00000KT 10SM FEW080 14/10 A3002 RMK AO2 SLP163 T01440100 55003
Conditions at: KSJC (SAN JOSE , CA, US) observed 1453 UTC 23 October 2019
Temperature: 14.4°C (58°F)
Dewpoint: 10.0°C (50°F) [RH = 75%]
Pressure (altimeter): 30.02 inches Hg (1016.7 mb)
[Sea-level pressure: 1016.3 mb]
Winds: calm
Visibility: 10 or more miles (16+ km)
Ceiling: at least 12,000 feet AGL
Clouds: few clouds at 8000 feet AGL
Weather: no significant weather observed at this time

METAR text: KSJC 231353Z 00000KT 10SM CLR 15/10 A3001 RMK AO2 SLP163 T01500100
Conditions at: KSJC (SAN JOSE , CA, US) observed 1353 UTC 23 October 2019
Temperature: 15.0°C (59°F)
Dewpoint: 10.0°C (50°F) [RH = 72%]
Pressure (altimeter): 30.01 inches Hg (1016.3 mb)
[Sea-level pressure: 1016.3 mb]
Winds: calm
Visibility: 10 or more miles (16+ km)
Ceiling: at least 12,000 feet AGL
Clouds: sky clear below 12,000 feet AGL
Weather: no significant weather observed at this time

METAR text: KSJC 231253Z 00000KT 10SM CLR 14/09 A3002 RMK AO2 SLP166 T01440094
Conditions at: KSJC (SAN JOSE , CA, US) observed 1253 UTC 23 October 2019
Temperature: 14.4°C (58°F)
Dewpoint: 9.4°C (49°F) [RH = 72%]
Pressure (altimeter): 30.02 inches Hg (1016.7 mb)
[Sea-level pressure: 1016.6 mb]
Winds: calm
Visibility: 10 or more miles (16+ km)
Ceiling: at least 12,000 feet AGL
Clouds: sky clear below 12,000 feet AGL
Weather: no significant weather observed at this time

METAR text: KSJC 231153Z AUTO 00000KT 10SM CLR 14/09 A3002 RMK AO2 SLP166 T01390089 10189 20139 58001
Conditions at: KSJC (SAN JOSE , CA, US) observed 1153 UTC 23 October 2019
Temperature: 13.9°C (57°F)
Dewpoint: 8.9°C (48°F) [RH = 72%]
Pressure (altimeter): 30.02 inches Hg (1016.7 mb)
[Sea-level pressure: 1016.6 mb]
Winds: calm
Visibility: 10 or more miles (16+ km)
Ceiling: at least 12,000 feet AGL
Clouds: sky clear below 12,000 feet AGL
Weather: automated observation with no human augmentation;
there may or may not be significant weather present at this time

METAR text: KSJC 231053Z AUTO 00000KT 10SM CLR 14/09 A3003 RMK AO2 SLP167 T01440089
Conditions at: KSJC (SAN JOSE , CA, US) observed 1053 UTC 23 October 2019
Temperature: 14.4°C (58°F)
Dewpoint: 8.9°C (48°F) [RH = 70%]
Pressure (altimeter): 30.03 inches Hg (1017.0 mb)
[Sea-level pressure: 1016.7 mb]
Winds: calm
Visibility: 10 or more miles (16+ km)
Ceiling: at least 12,000 feet AGL
Clouds: sky clear below 12,000 feet AGL
Weather: automated observation with no human augmentation;
there may or may not be significant weather present at this time

METAR text: KSJC 230953Z AUTO 00000KT 10SM CLR 16/09 A3003 RMK AO2 SLP170 T01560094
Conditions at: KSJC (SAN JOSE , CA, US) observed 0953 UTC 23 October 2019
Temperature: 15.6°C (60°F)
Dewpoint: 9.4°C (49°F) [RH = 67%]
Pressure (altimeter): 30.03 inches Hg (1017.0 mb)
[Sea-level pressure: 1017.0 mb]
Winds: calm
Visibility: 10 or more miles (16+ km)
Ceiling: at least 12,000 feet AGL
Clouds: sky clear below 12,000 feet AGL
Weather: automated observation with no human augmentation;
there may or may not be significant weather present at this time

METAR text: KSJC 230853Z AUTO 12003KT 10SM CLR 16/09 A3003 RMK AO2 SLP167 T01610094 56009
Conditions at: KSJC (SAN JOSE , CA, US) observed 0853 UTC 23 October 2019
Temperature: 16.1°C (61°F)
Dewpoint: 9.4°C (49°F) [RH = 64%]
Pressure (altimeter): 30.03 inches Hg (1017.0 mb)
[Sea-level pressure: 1016.7 mb]
Winds: from the ESE (120 degrees) at 3 MPH (3 knots; 1.5 m/s)
Visibility: 10 or more miles (16+ km)
Ceiling: at least 12,000 feet AGL
Clouds: sky clear below 12,000 feet AGL
Weather: automated observation with no human augmentation;
there may or may not be significant weather present at this time

METAR text: KSJC 230753Z AUTO 00000KT 10SM CLR 17/11 A3003 RMK AO2 SLP169 T01670106 403000117
Conditions at: KSJC (SAN JOSE , CA, US) observed 0753 UTC 23 October 2019
Temperature: 16.7°C (62°F)
Dewpoint: 10.6°C (51°F) [RH = 67%]
Pressure (altimeter): 30.03 inches Hg (1017.0 mb)
[Sea-level pressure: 1016.9 mb]
Winds: calm
Visibility: 10 or more miles (16+ km)
Ceiling: at least 12,000 feet AGL
Clouds: sky clear below 12,000 feet AGL
Weather: automated observation with no human augmentation;
there may or may not be significant weather present at this time

METAR text: KSJC 230653Z 18005KT 10SM CLR 18/11 A3004 RMK AO2 SLP171 LAST T01780106
Conditions at: KSJC (SAN JOSE , CA, US) observed 0653 UTC 23 October 2019
Temperature: 17.8°C (64°F)
Dewpoint: 10.6°C (51°F) [RH = 63%]
Pressure (altimeter): 30.04 inches Hg (1017.4 mb)
[Sea-level pressure: 1017.1 mb]
Winds: from the S (180 degrees) at 6 MPH (5 knots; 2.6 m/s)
Visibility: 10 or more miles (16+ km)
Ceiling: at least 12,000 feet AGL
Clouds: sky clear below 12,000 feet AGL
Weather: no significant weather observed at this time

METAR text: KSJC 230553Z 10003KT 10SM CLR 19/11 A3006 RMK AO2 SLP177 T01890106 10289 20183 50003
Conditions at: KSJC (SAN JOSE , CA, US) observed 0553 UTC 23 October 2019
Temperature: 18.9°C (66°F)
Dewpoint: 10.6°C (51°F) [RH = 59%]
Pressure (altimeter): 30.06 inches Hg (1018.0 mb)
[Sea-level pressure: 1017.7 mb]
Winds: from the E (100 degrees) at 3 MPH (3 knots; 1.5 m/s)
Visibility: 10 or more miles (16+ km)
Ceiling: at least 12,000 feet AGL
Clouds: sky clear below 12,000 feet AGL
Weather: no significant weather observed at this time

METAR text: KSJC 230453Z 22003KT 10SM FEW055 21/11 A3006 RMK AO2 SLP177 T02060106
Conditions at: KSJC (SAN JOSE , CA, US) observed 0453 UTC 23 October 2019
Temperature: 20.6°C (69°F)
Dewpoint: 10.6°C (51°F) [RH = 53%]
Pressure (altimeter): 30.06 inches Hg (1018.0 mb)
[Sea-level pressure: 1017.7 mb]
Winds: from the SW (220 degrees) at 3 MPH (3 knots; 1.5 m/s)
Visibility: 10 or more miles (16+ km)
Ceiling: at least 12,000 feet AGL
Clouds: few clouds at 5500 feet AGL
Weather: no significant weather observed at this time

METAR text: KSJC 230353Z 33003KT 10SM FEW055 20/11 A3005 RMK AO2 SLP176 T02000106
Conditions at: KSJC (SAN JOSE , CA, US) observed 0353 UTC 23 October 2019
Temperature: 20.0°C (68°F)
Dewpoint: 10.6°C (51°F) [RH = 55%]
Pressure (altimeter): 30.05 inches Hg (1017.7 mb)
[Sea-level pressure: 1017.6 mb]
Winds: from the NNW (330 degrees) at 3 MPH (3 knots; 1.5 m/s)
Visibility: 10 or more miles (16+ km)
Ceiling: at least 12,000 feet AGL
Clouds: few clouds at 5500 feet AGL
Weather: no significant weather observed at this time

METAR text: KSJC 230253Z 33007KT 10SM FEW060 23/11 A3005 RMK AO2 SLP174 T02280106 55002
Conditions at: KSJC (SAN JOSE , CA, US) observed 0253 UTC 23 October 2019
Temperature: 22.8°C (73°F)
Dewpoint: 10.6°C (51°F) [RH = 46%]
Pressure (altimeter): 30.05 inches Hg (1017.7 mb)
[Sea-level pressure: 1017.4 mb]
Winds: from the NNW (330 degrees) at 8 MPH (7 knots; 3.6 m/s)
Visibility: 10 or more miles (16+ km)
Ceiling: at least 12,000 feet AGL
Clouds: few clouds at 6000 feet AGL
Weather: no significant weather observed at this time

METAR text: KSJC 230153Z 33008KT 10SM FEW060 24/09 A3004 RMK AO2 SLP170 T02390089
Conditions at: KSJC (SAN JOSE , CA, US) observed 0153 UTC 23 October 2019
Temperature: 23.9°C (75°F)
Dewpoint: 8.9°C (48°F) [RH = 38%]
Pressure (altimeter): 30.04 inches Hg (1017.4 mb)
[Sea-level pressure: 1017.0 mb]
Winds: from the NNW (330 degrees) at 9 MPH (8 knots; 4.1 m/s)
Visibility: 10 or more miles (16+ km)
Ceiling: at least 12,000 feet AGL
Clouds: few clouds at 6000 feet AGL
Weather: no significant weather observed at this time

METAR text: KSJC 230053Z 33008KT 10SM FEW021 FEW060 FEW120 27/08 A3004 RMK AO2 SLP171 T02670083
Conditions at: KSJC (SAN JOSE , CA, US) observed 0053 UTC 23 October 2019
Temperature: 26.7°C (80°F)
Dewpoint: 8.3°C (47°F) [RH = 31%]
Pressure (altimeter): 30.04 inches Hg (1017.4 mb)
[Sea-level pressure: 1017.1 mb]
Winds: from the NNW (330 degrees) at 9 MPH (8 knots; 4.1 m/s)
Visibility: 10 or more miles (16+ km)
Ceiling: at least 12,000 feet AGL
Clouds: few clouds at 2100 feet AGL
few clouds at 6000 feet AGL
few clouds at 12000 feet AGL
Weather: no significant weather observed at this time

METAR text: KSJC 222353Z 32011KT 10SM FEW070 FEW100 29/08 A3005 RMK AO2 SLP176 T02890083 10300 20239 56020
Conditions at: KSJC (SAN JOSE , CA, US) observed 2353 UTC 22 October 2019
Temperature: 28.9°C (84°F)
Dewpoint: 8.3°C (47°F) [RH = 27%]
Pressure (altimeter): 30.05 inches Hg (1017.7 mb)
[Sea-level pressure: 1017.6 mb]
Winds: from the NW (320 degrees) at 13 MPH (11 knots; 5.7 m/s)
Visibility: 10 or more miles (16+ km)
Ceiling: at least 12,000 feet AGL
Clouds: few clouds at 7000 feet AGL
few clouds at 10000 feet AGL
Weather: no significant weather observed at this time

METAR text: KSJC 222253Z 34011KT 10SM FEW065 FEW120 29/09 A3007 RMK AO2 SLP181 T02940089
Conditions at: KSJC (SAN JOSE , CA, US) observed 2253 UTC 22 October 2019
Temperature: 29.4°C (85°F)
Dewpoint: 8.9°C (48°F) [RH = 28%]
Pressure (altimeter): 30.07 inches Hg (1018.4 mb)
[Sea-level pressure: 1018.1 mb]
Winds: from the NNW (340 degrees) at 13 MPH (11 knots; 5.7 m/s)
Visibility: 10 or more miles (16+ km)
Ceiling: at least 12,000 feet AGL
Clouds: few clouds at 6500 feet AGL
few clouds at 12000 feet AGL
Weather: no significant weather observed at this time

METAR text: KSJC 222153Z 30008KT 10SM FEW070 29/09 A3008 RMK AO2 SLP186 T02940089
Conditions at: KSJC (SAN JOSE , CA, US) observed 2153 UTC 22 October 2019
Temperature: 29.4°C (85°F)
Dewpoint: 8.9°C (48°F) [RH = 28%]
Pressure (altimeter): 30.08 inches Hg (1018.7 mb)
[Sea-level pressure: 1018.6 mb]
Winds: from the WNW (300 degrees) at 9 MPH (8 knots; 4.1 m/s)
Visibility: 10 or more miles (16+ km)
Ceiling: at least 12,000 feet AGL
Clouds: few clouds at 7000 feet AGL
Weather: no significant weather observed at this time

METAR text: KSJC 222053Z 30012KT 10SM FEW070 29/09 A3011 RMK AO2 SLP196 T02940094 58023
Conditions at: KSJC (SAN JOSE , CA, US) observed 2053 UTC 22 October 2019
Temperature: 29.4°C (85°F)
Dewpoint: 9.4°C (49°F) [RH = 29%]
Pressure (altimeter): 30.11 inches Hg (1019.7 mb)
[Sea-level pressure: 1019.6 mb]
Winds: from the WNW (300 degrees) at 14 MPH (12 knots; 6.2 m/s)
Visibility: 10 or more miles (16+ km)
Ceiling: at least 12,000 feet AGL
Clouds: few clouds at 7000 feet AGL
Weather: no significant weather observed at this time

METAR text: KSJC 221953Z 35008KT 10SM FEW090 28/09 A3015 RMK AO2 SLP207 T02830089
Conditions at: KSJC (SAN JOSE , CA, US) observed 1953 UTC 22 October 2019
Temperature: 28.3°C (83°F)
Dewpoint: 8.9°C (48°F) [RH = 30%]
Pressure (altimeter): 30.15 inches Hg (1021.1 mb)
[Sea-level pressure: 1020.7 mb]
Winds: from the N (350 degrees) at 9 MPH (8 knots; 4.1 m/s)
Visibility: 10 or more miles (16+ km)
Ceiling: at least 12,000 feet AGL
Clouds: few clouds at 9000 feet AGL
Weather: no significant weather observed at this time

METAR text: KSJC 221853Z 01004KT 10SM FEW100 27/09 A3017 RMK AO2 SLP214 T02670094
Conditions at: KSJC (SAN JOSE , CA, US) observed 1853 UTC 22 October 2019
Temperature: 26.7°C (80°F)
Dewpoint: 9.4°C (49°F) [RH = 34%]
Pressure (altimeter): 30.17 inches Hg (1021.8 mb)
[Sea-level pressure: 1021.4 mb]
Winds: from the N (10 degrees) at 5 MPH (4 knots; 2.1 m/s)
Visibility: 10 or more miles (16+ km)
Ceiling: at least 12,000 feet AGL
Clouds: few clouds at 10000 feet AGL
Weather: no significant weather observed at this time

METAR text: KSJC 221753Z 00000KT 10SM FEW100 24/10 A3018 RMK AO2 SLP219 T02390100 10239 20117 58000
Conditions at: KSJC (SAN JOSE , CA, US) observed 1753 UTC 22 October 2019
Temperature: 23.9°C (75°F)
Dewpoint: 10.0°C (50°F) [RH = 41%]
Pressure (altimeter): 30.18 inches Hg (1022.1 mb)
[Sea-level pressure: 1021.9 mb]
Winds: calm
Visibility: 10 or more miles (16+ km)
Ceiling: at least 12,000 feet AGL
Clouds: few clouds at 10000 feet AGL
Weather: no significant weather observed at this time

METAR text: KSJC 221653Z VRB03KT 10SM FEW100 21/10 A3020 RMK AO2 SLP224 T02110100
Conditions at: KSJC (SAN JOSE , CA, US) observed 1653 UTC 22 October 2019
Temperature: 21.1°C (70°F)
Dewpoint: 10.0°C (50°F) [RH = 49%]
Pressure (altimeter): 30.20 inches Hg (1022.8 mb)
[Sea-level pressure: 1022.4 mb]
Winds: variable direction winds at 3 MPH (3 knots; 1.5 m/s)
Visibility: 10 or more miles (16+ km)
Ceiling: at least 12,000 feet AGL
Clouds: few clouds at 10000 feet AGL
Weather: no significant weather observed at this time

METAR text: KSJC 221553Z 00000KT 10SM FEW100 17/09 A3019 RMK AO2 SLP223 T01720094
Conditions at: KSJC (SAN JOSE , CA, US) observed 1553 UTC 22 October 2019
Temperature: 17.2°C (63°F)
Dewpoint: 9.4°C (49°F) [RH = 60%]
Pressure (altimeter): 30.19 inches Hg (1022.4 mb)
[Sea-level pressure: 1022.3 mb]
Winds: calm
Visibility: 10 or more miles (16+ km)
Ceiling: at least 12,000 feet AGL
Clouds: few clouds at 10000 feet AGL
Weather: no significant weather observed at this time

METAR text: KSJC 221453Z VRB03KT 10SM FEW100 13/09 A3018 RMK AO2 SLP219 T01330089 51005
Conditions at: KSJC (SAN JOSE , CA, US) observed 1453 UTC 22 October 2019
Temperature: 13.3°C (56°F)
Dewpoint: 8.9°C (48°F) [RH = 75%]
Pressure (altimeter): 30.18 inches Hg (1022.1 mb)
[Sea-level pressure: 1021.9 mb]
Winds: variable direction winds at 3 MPH (3 knots; 1.5 m/s)
Visibility: 10 or more miles (16+ km)
Ceiling: at least 12,000 feet AGL
Clouds: few clouds at 10000 feet AGL
Weather: no significant weather observed at this time

METAR text: KSJC 221353Z 00000KT 10SM CLR 14/09 A3018 RMK AO2 SLP218 T01440089
Conditions at: KSJC (SAN JOSE , CA, US) observed 1353 UTC 22 October 2019
Temperature: 14.4°C (58°F)
Dewpoint: 8.9°C (48°F) [RH = 70%]
Pressure (altimeter): 30.18 inches Hg (1022.1 mb)
[Sea-level pressure: 1021.8 mb]
Winds: calm
Visibility: 10 or more miles (16+ km)
Ceiling: at least 12,000 feet AGL
Clouds: sky clear below 12,000 feet AGL
Weather: no significant weather observed at this time

METAR text: KSJC 221253Z 00000KT 10SM CLR 12/09 A3017 RMK AO2 SLP217 T01220089
Conditions at: KSJC (SAN JOSE , CA, US) observed 1253 UTC 22 October 2019
Temperature: 12.2°C (54°F)
Dewpoint: 8.9°C (48°F) [RH = 80%]
Pressure (altimeter): 30.17 inches Hg (1021.8 mb)
[Sea-level pressure: 1021.7 mb]
Winds: calm
Visibility: 10 or more miles (16+ km)
Ceiling: at least 12,000 feet AGL
Clouds: sky clear below 12,000 feet AGL
Weather: no significant weather observed at this time

METAR text: KSJC 221153Z AUTO 15003KT 10SM CLR 13/09 A3017 RMK AO2 SLP215 T01280094 10183 20122 51000
Conditions at: KSJC (SAN JOSE , CA, US) observed 1153 UTC 22 October 2019
Temperature: 12.8°C (55°F)
Dewpoint: 9.4°C (49°F) [RH = 80%]
Pressure (altimeter): 30.17 inches Hg (1021.8 mb)
[Sea-level pressure: 1021.5 mb]
Winds: from the SSE (150 degrees) at 3 MPH (3 knots; 1.5 m/s)
Visibility: 10 or more miles (16+ km)
Ceiling: at least 12,000 feet AGL
Clouds: sky clear below 12,000 feet AGL
Weather: automated observation with no human augmentation;
there may or may not be significant weather present at this time

Forecast for: KSJC (SAN JOSE , CA, US)
Text: KSJC 232320Z 2400/2424 31012KT P6SM SKC
Forecast period: 0000 to 0400 UTC 24 October 2019
Forecast type: FROM: standard forecast or significant change
Winds: from the NW (310 degrees) at 14 MPH (12 knots; 6.2 m/s)
Visibility: 6 or more miles 10+ km)
Clouds: clear skies
Weather: no significant weather forecast for this period
Text: FM240400 VRB05KT P6SM SKC
Forecast period: 0400 to 1800 UTC 24 October 2019
Forecast type: FROM: standard forecast or significant change
Winds: variable direction winds at 6 MPH (5 knots; 2.6 m/s)
Visibility: 6 or more miles 10+ km)
Clouds: clear skies
Weather: no significant weather forecast for this period
Text: FM241800 32008KT P6SM SKC
Forecast period: 1800 UTC 24 October 2019 to 0000 UTC 25 October 2019
Forecast type: FROM: standard forecast or significant change
Winds: from the NW (320 degrees) at 9 MPH (8 knots; 4.1 m/s)
Visibility: 6 or more miles 10+ km)
Clouds: clear skies
Weather: no significant weather forecast for this period